Belle Isle — FOXN — position and weather

sailwx.info

Track history (hours):
 
Tides and Currents Weather Stations Pressure Air Temp Water Temp Dewpoint Dewpoint Depression Visibility Wind Speed Wind Dir Waves Ship Positions

Belle Isle

Last reported at 2016-Aug-20 14:34 UTC. Time now 2016-Aug-31 07:56 UTC.
Position N 47°21' W 003°09'.
Warning: this ship's position is 10 days out of date.

Length 16 m.

Type: SAR. MMSI: 227021500.

Date/timePositionNaut miles runAvg speedWind from/ knotsBaromVisibWave heightAir tempDewpointWater temp
2016-Aug-20 14:34N 47°21' W 003°09'5 4.9
2016-Aug-20 13:33N 47°26' W 003°08'  
2016-Aug-18 02:34N 47°23' W 003°13'6 0.7
2016-Aug-17 18:33N 47°23' W 003°05'2020.2
2016-Aug-17 17:33N 47°29' W 002°36'9 3.6
2016-Aug-17 15:04N 47°30' W 002°23'5 9.6
2016-Aug-17 14:33N 47°30' W 002°31'2020.1
2016-Aug-17 13:34N 47°22' W 002°57'8 1.3
2016-Aug-17 07:21N 47°21' W 003°09'2 3.0
2016-Aug-17 06:33N 47°23' W 003°11'3 2.6
2016-Aug-17 05:33N 47°22' W 003°15'6 0.3
2016-Aug-16 11:34N 47°20' W 003°07'3 3.2
2016-Aug-16 10:33N 47°18' W 003°03'5 0.2
2016-Aug-15 10:18N 47°21' W 003°09'0 0.2
2016-Aug-15 09:33N 47°21' W 003°09'2 0.2
2016-Aug-15 00:33N 47°21' W 003°07'10 9.7
2016-Aug-14 23:33N 47°21' W 002°52'1 0.6
2016-Aug-14 22:33N 47°20' W 002°52'3 2.9
2016-Aug-14 21:33N 47°21' W 002°56'9 2.9
2016-Aug-14 18:33N 47°21' W 003°09'7 6.8
2016-Aug-14 17:33N 47°28' W 003°07'8 0.3
2016-Aug-13 14:33N 47°20' W 003°07'10 1.6
2016-Aug-13 08:23N 47°21' W 002°53'1 1.2
2016-Aug-13 07:33N 47°20' W 002°52'0 0.1
2016-Aug-13 06:33N 47°20' W 002°52'12 0.3
2016-Aug-11 15:31N 47°21' W 003°09'8 2.7
2016-Aug-11 12:33N 47°24' W 002°58'5 5.0
2016-Aug-11 11:33N 47°25' W 002°51'18 4.2
2016-Aug-11 07:07N 47°30' W 002°25'814.7
2016-Aug-11 06:33N 47°28' W 002°37'2020.1
2016-Aug-11 05:34N 47°21' W 003°04'  
Track history (hours):
 
Tides and Currents Weather Stations Pressure Air Temp Water Temp Dewpoint Dewpoint Depression Visibility Wind Speed Wind Dir Waves Ship Positions

Belle Isle

Last reported at 2016-Aug-20 14:34 UTC. Time now 2016-Aug-31 07:56 UTC.
Position N 47°21' W 003°09'.
Warning: this ship's position is 10 days out of date.

Length 16 m.

Type: SAR. MMSI: 227021500.

Date/timePositionNaut miles runAvg speedWind from/ knotsBaromVisibWave heightAir tempDewpointWater temp
2016-Aug-20 14:34N 47°21' W 003°09'5 4.9
2016-Aug-20 13:33N 47°26' W 003°08'  
2016-Aug-18 02:34N 47°23' W 003°13'6 0.7
2016-Aug-17 18:33N 47°23' W 003°05'2020.2
2016-Aug-17 17:33N 47°29' W 002°36'9 3.6
2016-Aug-17 15:04N 47°30' W 002°23'5 9.6
2016-Aug-17 14:33N 47°30' W 002°31'2020.1
2016-Aug-17 13:34N 47°22' W 002°57'8 1.3
2016-Aug-17 07:21N 47°21' W 003°09'2 3.0
2016-Aug-17 06:33N 47°23' W 003°11'3 2.6
2016-Aug-17 05:33N 47°22' W 003°15'6 0.3
2016-Aug-16 11:34N 47°20' W 003°07'3 3.2
2016-Aug-16 10:33N 47°18' W 003°03'5 0.2
2016-Aug-15 10:18N 47°21' W 003°09'0 0.2
2016-Aug-15 09:33N 47°21' W 003°09'2 0.2
2016-Aug-15 00:33N 47°21' W 003°07'10 9.7
2016-Aug-14 23:33N 47°21' W 002°52'1 0.6
2016-Aug-14 22:33N 47°20' W 002°52'3 2.9
2016-Aug-14 21:33N 47°21' W 002°56'9 2.9
2016-Aug-14 18:33N 47°21' W 003°09'7 6.8
2016-Aug-14 17:33N 47°28' W 003°07'8 0.3
2016-Aug-13 14:33N 47°20' W 003°07'10 1.6
2016-Aug-13 08:23N 47°21' W 002°53'1 1.2
2016-Aug-13 07:33N 47°20' W 002°52'0 0.1
2016-Aug-13 06:33N 47°20' W 002°52'12 0.3
2016-Aug-11 15:31N 47°21' W 003°09'8 2.7
2016-Aug-11 12:33N 47°24' W 002°58'5 5.0
2016-Aug-11 11:33N 47°25' W 002°51'18 4.2
2016-Aug-11 07:07N 47°30' W 002°25'814.7
2016-Aug-11 06:33N 47°28' W 002°37'2020.1
2016-Aug-11 05:34N 47°21' W 003°04'  

Dump ship's entire track history